createdAt,value
2018-11-21T00:00:41.337Z,33.13
2018-11-21T00:03:29.275Z,31.87
2018-11-21T00:06:17.109Z,32.55
2018-11-21T00:09:06.686Z,32.35
2018-11-21T00:11:54.352Z,31.20
2018-11-21T00:14:41.912Z,31.42
2018-11-21T00:17:29.532Z,29.82
2018-11-21T00:20:17.149Z,31.12
2018-11-21T00:23:05.021Z,30.30
2018-11-21T00:25:52.655Z,30.23
2018-11-21T00:28:40.823Z,30.23
2018-11-21T00:31:28.637Z,30.83
2018-11-21T00:34:16.262Z,32.90
2018-11-21T00:37:03.827Z,30.57
2018-11-21T00:39:52.207Z,33.30
2018-11-21T00:42:46.279Z,31.97
2018-11-21T00:45:27.362Z,34.48
2018-11-21T00:48:14.957Z,33.78
2018-11-21T00:51:02.711Z,32.15
2018-11-21T00:53:50.280Z,33.58
2018-11-21T00:56:38.182Z,32.80
2018-11-21T00:59:25.709Z,34.53
2018-11-21T01:02:13.277Z,34.40
2018-11-21T01:05:00.820Z,34.03
2018-11-21T01:07:48.390Z,35.00
2018-11-21T01:10:36.046Z,35.23
2018-11-21T01:13:23.745Z,33.60
2018-11-21T01:16:11.709Z,34.30
2018-11-21T01:18:59.323Z,35.63
2018-11-21T01:21:46.934Z,36.83
2018-11-21T01:24:34.516Z,34.20
2018-11-21T01:27:22.411Z,36.25
2018-11-21T01:30:09.988Z,36.03
2018-11-21T01:32:57.584Z,34.08
2018-11-21T01:35:45.164Z,36.55
2018-11-21T01:38:33.237Z,37.42
2018-11-21T01:41:13.632Z,37.93
2018-11-21T01:43:54.443Z,35.93
2018-11-21T01:46:36.259Z,35.33
2018-11-21T01:49:17.042Z,36.40
2018-11-21T01:51:57.605Z,35.90
2018-11-21T01:54:38.613Z,39.42
2018-11-21T01:57:18.766Z,36.93
2018-11-21T01:59:59.498Z,36.30
2018-11-21T02:02:39.866Z,36.35
2018-11-21T02:05:20.513Z,37.80
2018-11-21T02:08:01.472Z,39.50
2018-11-21T02:10:42.176Z,36.83
2018-11-21T02:13:22.423Z,37.03
2018-11-21T02:16:02.993Z,37.33
2018-11-21T02:18:43.333Z,40.35
2018-11-21T02:21:22.078Z,39.15
2018-11-21T02:27:03.865Z,39.90
2018-11-21T02:29:51.507Z,38.08
2018-11-21T02:32:39.080Z,38.65
2018-11-21T02:35:26.645Z,42.35
2018-11-21T02:38:14.555Z,40.75
2018-11-21T02:41:02.131Z,40.28
2018-11-21T02:43:49.666Z,40.78
2018-11-21T02:46:37.251Z,40.07
2018-11-21T02:49:25.111Z,41.28
2018-11-21T02:51:53.197Z,41.08
2018-11-21T02:54:41.095Z,43.08
2018-11-21T02:57:47.833Z,41.75
2018-11-21T03:00:35.360Z,43.13
2018-11-21T03:03:23.033Z,41.53
2018-11-21T03:06:10.622Z,41.77
2018-11-21T03:08:58.183Z,41.83
2018-11-21T03:11:45.735Z,41.13
2018-11-21T03:14:33.552Z,42.08
2018-11-21T03:17:21.104Z,41.15
2018-11-21T03:20:08.737Z,43.10
2018-11-21T03:22:56.312Z,43.37
2018-11-21T03:25:43.880Z,42.27
2018-11-21T03:28:31.487Z,43.20
2018-11-21T03:31:19.027Z,46.18
2018-11-21T03:34:06.606Z,45.30
2018-11-21T03:36:55.457Z,45.88
2018-11-21T03:39:43.817Z,44.50
2018-11-21T03:42:32.533Z,45.43
2018-11-21T03:45:39.284Z,45.80
2018-11-21T03:48:26.817Z,43.73
2018-11-21T03:51:14.359Z,44.55
2018-11-21T03:54:01.946Z,43.85
2018-11-21T03:56:49.485Z,44.30
2018-11-21T03:59:37.078Z,45.98
2018-11-21T04:02:24.641Z,45.88
2018-11-21T04:05:12.335Z,45.03
2018-11-21T04:10:53.686Z,48.07
2018-11-21T04:13:41.500Z,45.67
2018-11-21T04:16:29.035Z,43.23
2018-11-21T04:19:16.857Z,45.30
2018-11-21T04:22:04.400Z,46.13
2018-11-21T04:24:51.992Z,45.63
2018-11-21T04:27:39.880Z,48.05
2018-11-21T04:30:27.615Z,47.33
2018-11-21T04:33:15.440Z,45.45
2018-11-21T04:36:03.013Z,48.52
2018-11-21T04:38:50.656Z,47.13
2018-11-21T04:41:38.363Z,47.13
2018-11-21T04:44:25.937Z,44.98
2018-11-21T04:47:13.511Z,46.77
2018-11-21T04:50:01.102Z,47.90
2018-11-21T04:52:49.008Z,49.20
2018-11-21T04:55:36.633Z,48.42
2018-11-21T04:58:24.198Z,45.03
2018-11-21T05:01:12.097Z,50.35
2018-11-21T05:03:59.978Z,51.53
2018-11-21T05:06:47.551Z,50.98
2018-11-21T05:09:35.117Z,46.73
2018-11-21T05:12:22.926Z,49.23
2018-11-21T05:15:10.492Z,49.18
2018-11-21T05:17:58.049Z,52.40
2018-11-21T05:20:45.687Z,50.23
2018-11-21T05:23:33.329Z,50.43
2018-11-21T05:26:20.931Z,50.45
2018-11-21T05:29:08.484Z,49.50
2018-11-21T05:31:56.030Z,51.15
2018-11-21T05:34:43.599Z,49.60
2018-11-21T05:37:12.859Z,48.27
2018-11-21T05:42:54.508Z,48.40
2018-11-21T05:45:42.063Z,49.90
2018-11-21T05:48:29.654Z,50.20
2018-11-21T05:51:17.260Z,48.38
2018-11-21T05:56:58.621Z,51.05
2018-11-21T05:59:46.700Z,48.30
2018-11-21T06:02:34.255Z,48.15
2018-11-21T06:05:21.840Z,51.08
2018-11-21T06:08:09.382Z,48.53
2018-11-21T06:10:56.970Z,50.60
2018-11-21T06:13:44.534Z,49.77
2018-11-21T06:16:32.082Z,48.55
2018-11-21T06:19:19.639Z,49.25
2018-11-21T06:22:07.195Z,48.73
2018-11-21T06:27:48.313Z,48.00
2018-11-21T06:30:36.136Z,47.40
2018-11-21T06:33:23.723Z,46.88
2018-11-21T06:36:11.318Z,46.73
2018-11-21T06:38:58.870Z,46.27
2018-11-21T06:41:46.462Z,46.13
2018-11-21T06:44:34.035Z,44.30
2018-11-21T06:50:28.649Z,45.30
2018-11-21T06:53:16.225Z,45.33
2018-11-21T06:56:03.764Z,45.55
2018-11-21T06:58:55.132Z,44.67
2018-11-21T07:01:38.802Z,45.08
2018-11-21T07:04:26.331Z,44.65
2018-11-21T07:07:14.160Z,42.58
2018-11-21T07:10:01.726Z,42.85
2018-11-21T07:12:49.288Z,41.77
2018-11-21T07:15:37.080Z,42.80
2018-11-21T07:18:24.859Z,43.73
2018-11-21T07:21:12.668Z,42.30
2018-11-21T07:24:00.235Z,42.73
2018-11-21T07:26:47.899Z,40.00
2018-11-21T07:29:35.448Z,43.02
2018-11-21T07:32:42.477Z,41.63
2018-11-21T07:38:24.061Z,39.88
2018-11-21T07:41:11.656Z,41.30
2018-11-21T07:43:59.186Z,39.42
2018-11-21T07:46:46.789Z,41.18
2018-11-21T07:49:34.341Z,39.27
2018-11-21T07:52:21.915Z,41.75
2018-11-21T07:55:10.180Z,40.30
2018-11-21T07:58:00.000Z,38.45
2018-11-21T08:01:07.460Z,39.03
2018-11-21T08:03:57.091Z,36.93
2018-11-21T08:07:03.870Z,37.17
2018-11-21T08:10:03.557Z,36.63
2018-11-21T08:13:10.351Z,37.67
2018-11-21T08:16:17.138Z,36.98
2018-11-21T08:19:24.047Z,34.40
2018-11-21T08:22:31.061Z,35.37
2018-11-21T08:25:37.826Z,36.95
2018-11-21T08:28:44.565Z,36.28
2018-11-21T08:34:39.189Z,34.58
2018-11-21T08:37:27.056Z,34.05
2018-11-21T08:40:14.602Z,32.93
2018-11-21T08:43:02.273Z,33.13
2018-11-21T08:45:49.801Z,32.90
2018-11-21T08:48:37.415Z,33.08
2018-11-21T08:51:24.942Z,31.62
2018-11-21T08:54:12.505Z,33.05
2018-11-21T08:57:00.085Z,32.80
2018-11-21T08:59:47.950Z,31.97
2018-11-21T09:02:35.528Z,31.17
2018-11-21T09:05:23.389Z,29.67
2018-11-21T09:08:10.973Z,31.25
2018-11-21T09:10:58.736Z,30.43
2018-11-21T09:13:46.524Z,29.12
2018-11-21T09:16:34.082Z,28.02
2018-11-21T09:19:21.654Z,29.02
2018-11-21T09:22:09.189Z,29.35
2018-11-21T09:27:49.974Z,29.63
2018-11-21T09:30:37.524Z,28.80
2018-11-21T09:33:25.394Z,29.20
2018-11-21T09:36:12.902Z,30.62
2018-11-21T09:39:00.447Z,28.10
2018-11-21T09:41:47.981Z,27.55
2018-11-21T09:44:35.602Z,28.27
2018-11-21T09:47:24.212Z,27.98
2018-11-21T09:50:12.907Z,26.68
2018-11-21T09:53:00.444Z,29.18
2018-11-21T09:55:48.328Z,25.52
2018-11-21T09:58:35.602Z,27.98
2018-11-21T10:01:42.652Z,26.05
2018-11-21T10:04:30.205Z,26.60
2018-11-21T10:07:17.762Z,26.27
2018-11-21T10:10:05.445Z,26.00
2018-11-21T10:12:53.282Z,27.40
2018-11-21T10:15:41.401Z,26.10
2018-11-21T10:18:28.963Z,27.10
2018-11-21T10:21:35.727Z,26.10
2018-11-21T10:24:23.546Z,24.12
2018-11-21T10:27:11.088Z,23.38
2018-11-21T10:29:58.942Z,22.50
2018-11-21T10:32:46.479Z,22.05
2018-11-21T10:38:28.105Z,21.05
2018-11-21T10:41:15.698Z,21.42
2018-11-21T10:44:03.272Z,21.47
2018-11-21T10:46:50.876Z,21.97
2018-11-21T10:49:38.470Z,20.85
2018-11-21T10:52:26.640Z,20.48
2018-11-21T10:55:13.994Z,22.35
2018-11-21T10:58:02.026Z,22.65
2018-11-21T11:00:49.386Z,22.07
2018-11-21T11:03:56.191Z,20.45
2018-11-21T11:07:02.932Z,19.62
2018-11-21T11:10:00.757Z,20.27
2018-11-21T11:13:07.507Z,19.98
2018-11-21T11:16:14.243Z,20.92
2018-11-21T11:19:17.831Z,17.57
2018-11-21T11:22:24.600Z,21.97
2018-11-21T11:25:31.385Z,20.32
2018-11-21T11:28:38.292Z,19.82
2018-11-21T11:35:02.310Z,17.95
2018-11-21T11:38:09.501Z,19.00
2018-11-21T11:41:16.692Z,16.73
2018-11-21T11:44:23.961Z,18.30
2018-11-21T11:47:31.127Z,17.60
2018-11-21T11:50:38.445Z,18.12
2018-11-21T11:53:45.610Z,19.40
2018-11-21T11:56:52.832Z,16.53
2018-11-21T12:00:00.052Z,17.25
2018-11-21T12:03:07.195Z,17.07
2018-11-21T12:06:14.429Z,17.77
2018-11-21T12:09:21.683Z,17.60
2018-11-21T12:12:28.853Z,16.80
2018-11-21T12:15:36.011Z,16.00
2018-11-21T12:18:43.211Z,17.10
2018-11-21T12:21:50.369Z,16.48
2018-11-21T12:24:46.384Z,17.05
2018-11-21T12:27:39.916Z,17.62
2018-11-21T12:30:47.114Z,16.42
2018-11-21T12:33:49.975Z,16.40
2018-11-21T12:36:49.456Z,16.32
2018-11-21T12:39:41.580Z,16.32
2018-11-21T12:42:41.468Z,15.28
2018-11-21T12:45:41.170Z,15.60
2018-11-21T12:48:29.283Z,16.47
2018-11-21T12:51:36.468Z,15.85
2018-11-21T12:54:43.652Z,15.75
2018-11-21T12:57:50.810Z,16.35
2018-11-21T13:00:57.984Z,15.28
2018-11-21T13:04:05.163Z,16.48
2018-11-21T13:07:12.482Z,15.40
2018-11-21T13:10:19.711Z,15.88
2018-11-21T13:13:26.918Z,15.65
2018-11-21T13:16:34.077Z,17.82
2018-11-21T13:19:41.235Z,16.17
2018-11-21T13:22:48.388Z,16.23
2018-11-21T13:25:55.556Z,16.00
2018-11-21T13:29:02.822Z,16.25
2018-11-21T13:32:09.984Z,15.60
2018-11-21T13:35:17.181Z,15.38
2018-11-21T13:38:24.915Z,15.90
2018-11-21T13:40:52.284Z,16.40
2018-11-21T13:43:59.462Z,17.02
2018-11-21T13:47:06.632Z,15.35
2018-11-21T13:50:13.793Z,16.15
2018-11-21T13:53:21.032Z,16.93
2018-11-21T13:59:04.582Z,16.75
2018-11-21T14:04:48.612Z,16.02
2018-11-21T14:07:36.979Z,16.80
2018-11-21T14:10:25.675Z,17.30
2018-11-21T14:13:14.386Z,15.90
2018-11-21T14:16:02.781Z,15.32
2018-11-21T14:18:51.222Z,16.87
2018-11-21T14:21:39.899Z,16.93
2018-11-21T14:24:28.564Z,20.17
2018-11-21T14:30:12.444Z,20.80
2018-11-21T14:33:00.873Z,18.48
2018-11-21T14:35:52.274Z,18.25
2018-11-21T14:38:37.883Z,17.35
2018-11-21T14:41:26.313Z,16.50
2018-11-21T14:44:14.700Z,18.52
2018-11-21T14:47:03.552Z,17.07
2018-11-21T14:49:53.996Z,16.00
2018-11-21T14:52:42.388Z,15.95
2018-11-21T14:55:31.269Z,16.10
2018-11-21T14:58:19.621Z,16.05
2018-11-21T15:01:08.337Z,15.25
2018-11-21T15:03:56.696Z,15.05
2018-11-21T15:06:45.188Z,16.42
2018-11-21T15:09:33.586Z,14.55
2018-11-21T15:12:22.244Z,15.00
2018-11-21T15:15:12.286Z,16.40
2018-11-21T15:18:00.337Z,15.32
2018-11-21T15:20:48.111Z,14.45
2018-11-21T15:23:36.496Z,14.80
2018-11-21T15:26:25.033Z,14.07
2018-11-21T15:29:13.548Z,15.18
2018-11-21T15:32:01.935Z,15.60
2018-11-21T15:34:50.308Z,14.50
2018-11-21T15:37:39.172Z,14.35
2018-11-21T15:40:27.847Z,16.57
2018-11-21T15:43:16.287Z,16.07
2018-11-21T15:46:04.678Z,15.40
2018-11-21T15:51:48.004Z,14.13
2018-11-21T15:54:36.767Z,15.73
2018-11-21T16:00:22.076Z,16.32
2018-11-21T16:03:11.225Z,14.90
2018-11-21T16:05:59.703Z,14.28
2018-11-21T16:08:48.403Z,15.03
2018-11-21T16:11:36.471Z,15.08
2018-11-21T16:14:25.136Z,15.60
2018-11-21T16:17:13.521Z,15.30
2018-11-21T16:20:01.953Z,15.98
2018-11-21T16:22:50.535Z,16.40
2018-11-21T16:25:39.135Z,16.12
2018-11-21T16:28:27.565Z,16.07
2018-11-21T16:31:16.208Z,16.00
2018-11-21T16:34:04.051Z,16.70
2018-11-21T16:36:52.520Z,15.43
2018-11-21T16:39:41.733Z,16.48
2018-11-21T16:42:30.220Z,13.85
2018-11-21T16:45:20.399Z,14.63
2018-11-21T16:48:09.100Z,15.28
2018-11-21T16:50:57.739Z,15.75
2018-11-21T16:56:40.988Z,15.15
2018-11-21T16:59:29.349Z,17.25
2018-11-21T17:05:27.508Z,14.45
2018-11-21T17:08:15.893Z,13.65
2018-11-21T17:11:04.340Z,15.98
2018-11-21T17:13:52.803Z,15.23
2018-11-21T17:16:22.435Z,16.07
2018-11-21T17:22:05.540Z,15.30
2018-11-21T17:24:53.944Z,14.50
2018-11-21T17:30:51.513Z,14.80
2018-11-21T17:36:49.322Z,16.12
2018-11-21T17:39:37.727Z,15.98
2018-11-21T17:42:26.534Z,15.20
2018-11-21T17:45:15.671Z,15.47
2018-11-21T17:48:04.285Z,15.03
2018-11-21T17:50:52.657Z,15.03
2018-11-21T17:53:41.079Z,15.98
2018-11-21T17:56:29.448Z,14.50
2018-11-21T17:59:37.524Z,14.05
2018-11-21T18:02:26.425Z,14.03
2018-11-21T18:05:16.522Z,13.30
2018-11-21T18:08:04.956Z,13.18
2018-11-21T18:10:53.682Z,12.98
2018-11-21T18:13:42.100Z,14.35
2018-11-21T18:16:30.583Z,13.55
2018-11-21T18:19:19.079Z,13.48
2018-11-21T18:21:48.715Z,13.13
2018-11-21T18:24:37.175Z,13.08
2018-11-21T18:27:25.848Z,12.80
2018-11-21T18:30:16.119Z,12.13
2018-11-21T18:36:13.120Z,12.33
2018-11-21T18:39:01.526Z,12.90
2018-11-21T18:41:50.186Z,12.07
2018-11-21T18:44:38.601Z,11.93
2018-11-21T18:47:27.056Z,12.15
2018-11-21T18:50:16.405Z,12.68
2018-11-21T18:53:05.848Z,12.43
2018-11-21T18:55:56.003Z,12.15
2018-11-21T18:59:03.400Z,12.88
2018-11-21T19:01:52.085Z,13.48
2018-11-21T19:04:40.765Z,13.13
2018-11-21T19:07:29.210Z,13.80
2018-11-21T19:10:17.639Z,14.53
2018-11-21T19:13:06.265Z,14.18
2018-11-21T19:15:55.334Z,14.40
2018-11-21T19:18:43.838Z,14.43
2018-11-21T19:21:32.346Z,26.70
2018-11-21T19:24:21.148Z,32.93
2018-11-21T19:26:50.543Z,25.97
2018-11-21T19:29:39.219Z,31.67
2018-11-21T19:32:27.579Z,31.45
2018-11-21T19:35:15.967Z,24.72
2018-11-21T19:38:04.354Z,16.27
2018-11-21T19:40:34.380Z,16.00
2018-11-21T19:43:22.819Z,14.05
2018-11-21T19:46:11.196Z,14.77
2018-11-21T19:49:02.173Z,13.90
2018-11-21T19:51:51.391Z,14.50
2018-11-21T19:54:40.143Z,14.93
2018-11-21T19:57:28.491Z,14.63
2018-11-21T20:00:38.613Z,13.93
2018-11-21T20:03:27.234Z,13.32
2018-11-21T20:06:16.101Z,14.28
2018-11-21T20:09:25.073Z,14.70
2018-11-21T20:12:13.468Z,15.50
2018-11-21T20:15:01.943Z,14.25
2018-11-21T20:18:09.136Z,15.03
2018-11-21T20:20:57.758Z,16.55
2018-11-21T20:23:46.143Z,15.03
2018-11-21T20:26:34.577Z,14.53
2018-11-21T20:32:31.816Z,14.97
2018-11-21T20:35:20.608Z,15.27
2018-11-21T20:38:09.307Z,14.90
2018-11-21T20:40:57.703Z,15.55
2018-11-21T20:43:46.116Z,16.77
2018-11-21T20:46:35.413Z,16.50
2018-11-21T20:49:23.929Z,16.17
2018-11-21T20:52:12.369Z,16.75
2018-11-21T20:55:00.765Z,17.40
2018-11-21T20:57:49.174Z,17.10
2018-11-21T21:00:37.850Z,17.98
2018-11-21T21:03:26.579Z,16.65
2018-11-21T21:06:15.151Z,18.03
2018-11-21T21:09:23.260Z,17.20
2018-11-21T21:12:11.732Z,17.70
2018-11-21T21:15:00.350Z,18.48
2018-11-21T21:17:49.451Z,16.40
2018-11-21T21:20:37.892Z,16.60
2018-11-21T21:23:26.530Z,17.30
2018-11-21T21:26:14.931Z,18.75
2018-11-21T21:29:03.355Z,18.27
2018-11-21T21:31:51.796Z,18.83
2018-11-21T21:34:40.231Z,17.82
2018-11-21T21:37:28.952Z,17.87
2018-11-21T21:40:20.351Z,17.62
2018-11-21T21:46:15.995Z,17.50
